Portada
METAR-TAF:

METAR-TAF

Aeroports :

Pohnpei, Micronèsia

latitud: 06-59N, longitud: 158-12E, altitud: 2 m

METAR: manca

Hora: 17:21 (06:21 UTC)

Pronòstic

L'informe es va fer fa 6 hores i 51 minuts, a les 23:30 UTC
Pronòstic vàlid del 21 a les 00 UTC al 21 a les 24 UTC
Vent 6 kt del Sud
Visibilitat: 10 km
Cel ennuvolat a una alçada de 1600 ft, Cumulonimbus.
Cel ennuvolat a una alçada de 12000 ft
tempesta a les proximitats
Temporalment
l' 21 a les 00 UTC al 21 a les 04 UTC
Visibilitat: 1.6 km
Cel ennuvolat a una alçada de 1600 ft
xàfecs de pluja
A partir de les 21 a les 0600 UTC
Vent 6 kt del Sud
Visibilitat: 10 km
Cel ennuvolat a una alçada de 1600 ft
Cel ennuvolat a una alçada de 12000 ft
xàfecs en les proximitats

TAF: PTPN 202330Z 2100/2124 18006KT P6SM VCTS BKN016CB BKN120 TEMPO 2100/2104 1SM +SHRA BKN016 FM210600 18006KT P6SM VCSH BKN016 BKN120

Observacions i pronòstics meteorològics de més de 4000 aeroports (METAR i TAF).

Les estacions disponibles són els punts grocs i vermells al mapa.

Posi el ratolí al punt desitjat per veure el nom de l'estació.

Feu clic per veure les observacions i els pronòstics meteorològics.

Per canviar el mapa: feu clic els botons verds amb una creu de color negre per apropar; al botó verd amb un guió per allunyar la imatge; o en les fletxes verdes per a mapes adjacents.


METAR-TAF: